HTDO

Dodoma Airport

Dodoma, Tanzania
HTDO 210500Z 2106/2206 09012KT 9999 FEW025
Issued Valid From Valid To
Jun-21 @ 05:00 UTC
(5 hours ago)
Jun-21 @ 06:00 UTC
(4 hours ago)
Jun-22 @ 06:00 UTC
(in 20 hours)
Jun-21 @ 06:00 to Jun-22 @ 06:00
HTDO 210500Z 2106/2206 09012KT 9999 FEW025
Wind Visibility Clouds
90° at 12 knots 10,000+ meters
  • Few at 2,500' AGL
HTDO 210500Z 2106/2206 09012KT 9999 FEW025
Issued Jun-21 @ 05:00 UTC
(5 hours ago)
Valid From Jun-21 @ 06:00 UTC
(4 hours ago)
Valid To Jun-22 @ 06:00 UTC
(in 20 hours)
Jun-21 @ 06:00 - Jun-22 @ 06:00
Wind Visibility
90° at 12 knots 10,000+ meters
Clouds
  • Few at 2,500' AGL